Aerodrome Latest Weathers

# Airport/Station Observation Time (Local Time) Wind Visibility (km) Weather Temp. (°C) Dewdrop (°C) Air Pressure (hPa)
Direction (from) Speed (km/h)
1 Maimun Saleh - Sabang 2019-03-17 07:00:00 WIB Timur 11.1 6.0 Cerah - berawan 27 24 1013
2 Sultan Iskandar Muda - Banda Aceh 2019-03-17 09:00:00 WIB Tenggara 9.3 8.0 Cerah - berawan 27 23 1013
3 Cut Nyak Dien Nagan Raya - Meulaboh, NAD 2019-03-17 09:00:00 WIB Timur Laut 1.9 8.0 Cerah - berawan 29 24 1012
4 Malikus Saleh - Lhokseumawe 2019-03-17 08:00:00 WIB Barat Daya 5.6 4.0 Udara kabur 25 23 1013
5 Binaka - Gunung Sitoli 2019-03-17 09:00:00 WIB Utara 9.3 8.0 Cerah - berawan 30 26 1011
6 Kualanamu International Airport - Deli Serdang 2019-03-17 09:00:00 WIB Barat 9.3 6.0 Cerah - berawan 29 25 1012
7 Dr. Ferdinand Lumban Tobing - Pinangsori (Sibolga) 2019-03-17 09:00:00 WIB Tenggara 7.4 6.0 Cerah - berawan 27 24 1011
8 Aek Godang - Padang Sidempuan 2019-03-17 09:00:00 WIB Tenang 5.0 Udara kabur 25 21 1014
9 Minangkabau International Airport - Padang 2019-03-17 09:00:00 WIB Variabel 3.7 >=10 Cerah - berawan 29 26 1012
10 Sultan Syarif Kasim II - Pekanbaru 2019-03-17 09:00:00 WIB Timur Laut 14.8 8.0 Cerah - berawan 28 23 1012
11 Japura - Rengat 2019-03-17 09:00:00 WIB Tenang 8.0 Berawan 28 24 1013
12 Fatmawati Sukarno - Bengkulu 2019-03-17 08:30:00 WIB Timur 3.7 8.0 Cerah - berawan 27 22 1011
13 Raja Haji Abdullah - Tanjung Balai Karimun 2019-03-17 08:00:00 WIB Timur Laut 18.5 8.0 Berawan 29 24 1012
14 Sultan Thaha - Jambi 2019-03-17 09:00:00 WIB Barat Laut 11.1 >=10 Berawan 29 25 1013
15 Hang Nadim - Batam 2019-03-17 09:00:00 WIB Utara 7.4 9.0 Cerah - berawan 30 23 1015
16 Raja Haji Fisabilillah - Tanjung Pinang 2019-03-17 09:00:00 WIB Utara 14.8 >=10 Berawan 29 22 1013
17 Dabo - Singkep 2019-03-17 08:00:00 WIB Barat Laut 5.6 9.0 Berawan 30 25 1011
18 Sultan Mahmud Badaruddin II - Palembang 2019-03-17 08:30:00 WIB Barat Laut 9.3 9.0 Cerah - berawan 28 25 1013
19 Radin Inten II - Lampung 2019-03-17 09:00:00 WIB Tenang 8.0 Cerah - berawan 27 24 1014
20 Depati Amir - Pangkal Pinang 2019-03-17 09:00:00 WIB Barat Laut 5.6 8.0 Berawan 29 25 1012
21 Budiarto - Curug 2019-03-17 09:00:00 WIB Barat Daya 9.3 >=10 Cerah - berawan 30 27 1013
22 Soekarno Hatta - Jakarta 2019-03-17 09:00:00 WIB Barat 14.8 >=10 Cerah - berawan 29 23 1013
23 Halim Perdana Kusuma - Jakarta 2019-03-17 09:00:00 WIB Selatan 7.4 6.0 Cerah - berawan 29 23 1013
24 Husein Sastranegara - Bandung 2019-03-17 09:00:00 WIB Selatan 7.4 7.0 Berawan 25 20 1018
25 H.A.S. Hanandjoeddin - Tanjung Pandan 2019-03-17 09:00:00 WIB Utara 9.3 8.0 Berawan 28 24 1013
26 Kertajati 2019-03-17 09:00:00 WIB Barat Daya 3.7 9.0 Berawan 27 25 1012
27 Ranai - Natuna 2019-03-17 07:00:00 WIB Timur Laut 18.5 8.0 Berawan 27 23 1011
28 Tunggul Wulung - Cilacap 2019-03-17 09:00:00 WIB Barat Laut 7.4 1.0 Hujan ringan 24 24 1013
29 Supadio - Pontianak 2019-03-17 09:00:00 WIB Timur Laut 5.6 >=10 Cerah - berawan 27 24 1013
30 Rahadi Oesman - Ketapang 2019-03-17 09:00:00 WIB Utara 13.0 >=10 Cerah - berawan 30 25 1013
31 Ahmad Yani - Semarang 2019-03-17 09:00:00 WIB Barat Laut 11.1 7.0 Cerah - berawan 27 23 1012
32 Adi Sutjipto - Yogyakarta 2019-03-17 09:00:00 WIB Selatan 13.0 2.0 Berawan 24 23 1012
33 Adi Soemarmo - Surakarta 2019-03-17 08:00:00 WIB Barat Daya 9.3 5.0 Cerah - berawan 26 23 1012
34 Iswahjudi - Madiun 2019-03-17 07:00:00 WIB Tenggara 13.0 7.0 Berawan 24 22 1011
35 Tebelian - Sintang 2019-03-17 09:00:00 WIB Barat Laut 7.4 8.0 Berawan 27 23 1013
36 Iskandar - Pangkalan Bun 2019-03-17 09:00:00 WIB Tenang 8.0 Berawan 26 24 1013
37 Nanga Pinoh 2019-03-17 09:00:00 WIB Tenang 5.0 Udara kabur 28 24 1014
38 Bawean - Harun Thohir 2019-03-17 07:00:00 WIB Tenang 9.0 Berawan 26 25 1011
39 Abdulrachman Saleh - Malang 2019-03-17 07:00:00 WIB Selatan 7.4 3.0 Hujan 21 21 1015
40 Juanda - Surabaya 2019-03-17 08:30:00 WIB Variabel 5.6 >=10 Cerah - berawan 29 23 1011
41 Pangsuma - Putussibau 2019-03-17 09:00:00 WIB Variabel 5.6 Cerah 28 24 1014
42 Haji Asan - Sampit 2019-03-17 09:00:00 WIB Barat Laut 3.7 >=10 Berawan 29 23 1013
43 Noto Hadinegoro - Jember 2019-03-17 09:00:00 WIB Tenggara 3.7 >=10 Berawan 29 23 1012
44 Tjilik Riwut - Palangkaraya 2019-03-17 09:00:00 WIB Utara 5.6 >=10 Berawan 29 23 1014
45 Banyuwangi 2019-03-17 09:00:00 WIB Selatan 5.6 >=10 Cerah - berawan 28 24 1011
46 Beringin - Muara Teweh 2019-03-17 09:00:00 WIB Tenang >=10 Berawan 27 24 1013
47 Sanggu - Buntok 2019-03-17 09:00:00 WIB Tenang >=10 Berawan 28 23 1015
48 H. Hasan Aroeboesman - Ende 2019-03-17 08:00:00 WIB Barat 20.4 7.0 Berawan 29 23 1009
49 Syamsudin Noor - Banjarmasin 2019-03-17 10:00:00 WITA Utara 9.3 >=10 Cerah - berawan 27 23 1013
50 I Gusti Ngurah Rai - Denpasar 2019-03-17 10:00:00 WITA Barat Laut 16.7 >=10 Cerah - berawan 28 25 1011
51 Yuvai Semaring - Long Bawang 2019-03-17 10:00:00 WITA Timur Laut 9.3 5.0 Udara kabur 24 20 1020
52 Bandara Internasional Lombok - Praya 2019-03-17 10:00:00 WITA Barat Laut 5.6 8.0 Berawan 28 24 1011
53 Gusti Sjamsir Alam - Kota Baru 2019-03-17 09:30:00 WITA Selatan 3.7 8.0 Berawan 27 24 1013
54 Sultan Aji Muhammad Sulaiman - Sepinggan 2019-03-17 10:00:00 WITA Timur Laut 9.3 >=10 Cerah - berawan 30 23 1012
55 Aji Pangeran Tumenggung Pranoto - Samarinda 2019-03-17 10:00:00 WITA Utara 5.6 >=10 Cerah - berawan 29 23 1013
56 Tanjung Harapan - Tanjung Selor 2019-03-17 10:00:00 WITA Timur Laut 7.4 8.0 Berawan 29 24 1013
57 Sultan Muhammad Kaharuddin - Sumbawa Besar 2019-03-17 10:00:00 WITA Timur Laut 3.7 >=10 Berawan 29 25 1010
58 Kalimarau - Tanjung Redeb 2019-03-17 08:00:00 WITA Barat Laut 5.6 8.0 Berawan 25 23 1014
59 Juwata - Tarakan 2019-03-17 09:30:00 WITA Utara 11.1 >=10 Berawan 29 23 1013
60 Nunukan 2019-03-17 09:00:00 WITA Barat Laut 18.5 9.0 Cerah - berawan 28 20 1013
61 Sultan Muhammad Salahuddin - Bima 2019-03-17 10:00:00 WITA Tenang 7.0 Berawan 27 25 1011
62 Tambolaka - Sumba Barat 2019-03-17 09:00:00 WITA Timur Laut 5.6 8.0 Berawan 27 25 1012
63 Sultan Hasanuddin - Makassar 2019-03-17 10:00:00 WITA Utara 18.5 >=10 Cerah - berawan 29 26 1012
64 Pongtiku - Tana Toraja 2019-03-17 09:00:00 WITA Tenang 7.0 Berawan 22 19 1012
65 Komodo - Labuan Bajo 2019-03-17 10:00:00 WITA Utara 18.5 9.0 Berawan 26 25 1011
66 Mutiara SIS Al-Jufri - Palu 2019-03-17 10:00:00 WITA Barat 5.6 >=10 Cerah - berawan 31 21 1014
67 Umbu Mehang Kunda - Waingapu 2019-03-17 10:00:00 WITA Tenang >=10 Cerah - berawan 31 24 1010
68 Andi Jemma - Masamba 2019-03-17 09:00:00 WITA Tenang 9.0 Cerah - berawan 29 21 1011
69 Frans Sales Lega - Ruteng 2019-03-17 10:00:00 WITA Tenggara 5.6 2.0 Hujan 20 19 1009
70 Kasiguncu - Poso 2019-03-17 08:00:00 WITA Tenang >=10 Cerah - berawan 26 23 1012
71 Sultan Bantilan - Toli Toli 2019-03-17 09:00:00 WITA Selatan 3.7 >=10 Cerah - berawan 29 23 1013
72 Tardamu - Sabu 2019-03-17 10:00:00 WITA Barat Laut 5.6 >=10 Cerah - berawan 28 25 1010
73 Fransiskus Xaverius Seda - Maumere 2019-03-17 09:30:00 WITA Barat Laut 22.2 6.0 Hujan ringan 27 23 1012
74 Haluoleo - Kendari 2019-03-17 09:00:00 WITA Barat Laut 7.4 >=10 Berawan 27 24 1014
75 Beto Ambari - Bau Bau 2019-03-17 10:00:00 WITA Utara 9.3 >=10 Berawan 30 25 1014
76 Syukuran Aminuddin Amir - Luwuk 2019-03-17 10:00:00 WITA Selatan 11.1 >=10 Cerah - berawan 1011
77 Djalaluddin - Gorontalo 2019-03-17 09:30:00 WITA Utara 9.3 >=10 Berawan 30 24 1011
78 Gewayantana - Larantuka 2019-03-17 10:00:00 WITA Barat Laut 11.1 8.0 Berawan 26 23 1011
79 David Constantijn Saudale - Rote 2019-03-17 08:00:00 WITA Utara 7.4 >=10 Berawan 26 25 1014
80 El Tari - Kupang 2019-03-17 10:00:00 WITA Barat Laut 14.8 8.0 Hujan ringan 29 24 1010
81 Mali - Alor 2019-03-17 08:30:00 WITA Selatan 5.6 8.0 Berawan 25 24 1012
82 A.A. Bere Talo / Atambua 2019-03-17 10:00:00 WITA Utara 18.5 >=10 Berawan 29 25 1013
83 Sam Ratulangi - Manado 2019-03-17 10:00:00 WITA Barat Laut 9.3 >=10 Berawan 31 22 1012
84 Naha - Tahuna 2019-03-17 09:00:00 WITA Tenang 8.0 Cerah - berawan 28 24 1012
85 Emalamo - Sanana 2019-03-17 11:00:00 WIT Utara 11.1 >=10 Cerah - berawan 32 23 1011
86 Namniwel - Namlea 2019-03-17 11:00:00 WIT Utara 27.8 >=10 Berawan 30 25 1010
87 Sultan Babullah - Ternate 2019-03-17 11:00:00 WIT Barat Laut 22.2 >=10 Berawan 30 25 1012
88 Oesman Sadik - Labuha 2019-03-17 11:00:00 WIT Barat 7.4 >=10 Cerah - berawan 30 21 1011
89 Gamar Malamo - Galela 2019-03-17 11:00:00 WIT Timur Laut 18.5 8.0 Hujan ringan 29 25 1011
90 Pattimura - Ambon 2019-03-17 11:00:00 WIT Barat Laut 16.7 >=10 Cerah - berawan 32 23 1011
91 Amahai 2019-03-17 10:00:00 WIT Barat Daya 5.6 >=10 Berawan 30 23 1011
92 Bandaneira - Banda 2019-03-17 10:00:00 WIT Barat Laut 9.3 8.0 Berawan 30 26 1011
93 Domine Eduard Osok - Sorong 2019-03-17 11:00:00 WIT Barat 14.8 >=10 Cerah - berawan 30 25 1010
94 Mathilda Batlayeri - Saumlaki 2019-03-17 11:00:00 WIT Barat 14.8 >=10 Cerah - berawan 32 24 1010
95 Torea - Fak Fak 2019-03-17 10:00:00 WIT Selatan 5.6 >=10 Cerah - berawan 29 23 1013
96 Dumatubun - Langgur 2019-03-17 10:00:00 WIT Barat 11.1 >=10 Cerah - berawan 29 25 1011
97 Utarom - Kaimana 2019-03-17 09:00:00 WIT Utara 14.8 9.0 Berawan 29 24 1011
98 Rendani - Manokwari 2019-03-17 11:00:00 WIT Tenggara 9.3 >=10 Cerah - berawan 31 23 1008
99 Douw Aturure - Nabire 2019-03-17 11:00:00 WIT Barat 25.9 >=10 Cerah - berawan 32 23 1008
100 Frans Kaisiepo - Biak 2019-03-17 11:00:00 WIT Barat 14.8 >=10 Cerah - berawan 30 24 1009
101 Enarotali 2019-03-17 11:00:00 WIT Selatan 9.3 9.0 Berawan 22 15 1011
102 Mararena / Orai - Sarmi 2019-03-17 09:00:00 WIT Barat 5.6 >=10 Cerah - berawan 29 25 1010
103 Wamena 2019-03-17 11:00:00 WIT Tenggara 37.0 >=10 Berawan 24 14 1006
104 Tanah Merah 2019-03-17 10:00:00 WIT Barat 11.1 >=10 Berawan 30 24 1012
105 Mopah - Merauke 2019-03-17 11:00:00 WIT Utara 13.0 7.0 Berawan 28 25 1010
106 Sentani - Jayapura 2019-03-17 11:00:00 WIT Barat Daya 9.3 >=10 Berawan 30 23 1008

Satellite Images

Wave Height Forecast

Wind Forecast

Forest Fires